Bowman, SC

20:39 EST le 21 novembre 2014 (GMT -0500)
Orangeburg Municipal | Change Station
CLOSE
Current Station
Aéroport
Location: Orangeburg,
Altitude: 197 ft
Stations météo à proximité

Alt. 197 ft 33.46 °N, 80.86 °W | Updated 46 minutes ago

Ciel dégagé
Ciel dégagé
51 ° F
Paraît 51 ° F
N
5
Vent Variable Vent de Est

Aujourd'hui
Haut(e) -- | Bas -- ° F
--% Risque de précip.
Hier
Haut(e) -- | Bas -- ° F
Precip. -- pouce
6:59 AM 5:17 PM
Lune descendante, 0% visible
Pression 30.44 pouce
Visibilité 10.0 Miles terrestres
Nuages Ciel dégagé
Point de rosée 26 ° F
Humidité 38%
Précipitations 0.00 pouce
Profondeur de la couche neigeuse Non disponible.
UV 0 sur 12
Pollen 1.80 sur 12
Qualité de l'air Non disponible.
Flu Activity Non disponible.
METAR KOGB 220053Z AUTO 08004KT 10SM CLR 11/M03 A3044 RMK AO2 SLP308 T01061033

More Conditions Fewer Conditions

Pression 30.44 pouce
Visibilité 10.0 Miles terrestres
Nuages Ciel dégagé
Point de rosée 26 ° F
Humidité 38%
Précipitations 0.00 pouce
Profondeur de la couche neigeuse Non disponible.
UV 0 sur 12
Pollen 1.80 sur 12
Qualité de l'air Non disponible.
Flu Activity Non disponible.
METAR KOGB 220053Z AUTO 08004KT 10SM CLR 11/M03 A3044 RMK AO2 SLP308 T01061033

More Conditions Fewer Conditions

10-Day Weather Forecast

Almanac

Astronomie

Nov. 21, 2014 Lever Coucher
Temps réel
Crépuscule civil
Crépuscule nautique
Crépuscule astronomique
Lune
Durée de lumière visible
Longueur du jour
Tomorrow will be .
, % of the Moon is Illuminated

Extrêmes aujourd'hui

State Highs State Lows

Community

WunderPhotos

Upload Photos

1,772,748 Photos téléchargées !

WunderBlogs® & News

Nearby

Qualité de l'air

  Qualité de l'air Indice de la qualité de l'air Polluant
Not available.

Épaisseur de neige

Station Depth Altitude

Activité sismique

Ville Distance Mag. Time & Date
Minimum magnitude displayed is 2.5.

Températures des eaux côtières

Lieu Température

Stations météo à proximité